sensor_id;sensor_type;location;lat;lon;timestamp;pressure;altitude;pressure_sealevel;temperature;humidity
64683;BME280;51107;47.652;19.016;2023-05-24T00:01:44;99636.28;;;15.05;100.00
64683;BME280;51107;47.652;19.016;2023-05-24T00:04:13;99627.22;;;15.07;100.00
64683;BME280;51107;47.652;19.016;2023-05-24T00:06:42;99624.16;;;15.04;100.00
64683;BME280;51107;47.652;19.016;2023-05-24T00:09:11;99619.25;;;15.16;100.00
64683;BME280;51107;47.652;19.016;2023-05-24T00:11:40;99627.59;;;15.04;100.00
64683;BME280;51107;47.652;19.016;2023-05-24T00:14:08;99615.56;;;15.10;100.00
64683;BME280;51107;47.652;19.016;2023-05-24T00:16:36;99613.56;;;15.12;100.00
64683;BME280;51107;47.652;19.016;2023-05-24T00:19:05;99615.56;;;15.10;100.00
64683;BME280;51107;47.652;19.016;2023-05-24T00:21:33;99605.94;;;15.17;100.00
64683;BME280;51107;47.652;19.016;2023-05-24T00:24:03;99612.44;;;15.21;100.00
64683;BME280;51107;47.652;19.016;2023-05-24T00:26:32;99615.69;;;15.23;100.00
64683;BME280;51107;47.652;19.016;2023-05-24T00:29:00;99613.91;;;15.24;100.00
64683;BME280;51107;47.652;19.016;2023-05-24T00:31:29;99607.66;;;15.25;100.00
64683;BME280;51107;47.652;19.016;2023-05-24T00:33:57;99604.59;;;15.21;100.00
64683;BME280;51107;47.652;19.016;2023-05-24T00:36:25;99603.44;;;15.09;100.00
64683;BME280;51107;47.652;19.016;2023-05-24T00:38:54;99600.09;;;15.15;100.00
64683;BME280;51107;47.652;19.016;2023-05-24T00:41:22;99602.44;;;15.10;100.00
64683;BME280;51107;47.652;19.016;2023-05-24T00:43:50;99601.44;;;15.11;100.00
64683;BME280;51107;47.652;19.016;2023-05-24T00:46:21;99606.25;;;15.07;100.00
64683;BME280;51107;47.652;19.016;2023-05-24T00:48:54;99606.50;;;15.13;100.00
64683;BME280;51107;47.652;19.016;2023-05-24T00:51:24;99604.69;;;15.13;100.00
64683;BME280;51107;47.652;19.016;2023-05-24T00:53:55;99604.97;;;15.18;100.00
64683;BME280;51107;47.652;19.016;2023-05-24T00:56:23;99602.72;;;15.15;100.00
64683;BME280;51107;47.652;19.016;2023-05-24T00:58:52;99608.56;;;15.17;100.00
64683;BME280;51107;47.652;19.016;2023-05-24T01:01:23;99610.19;;;15.18;100.00
64683;BME280;51107;47.652;19.016;2023-05-24T01:03:58;99608.75;;;15.16;100.00
64683;BME280;51107;47.652;19.016;2023-05-24T01:06:28;99607.97;;;15.15;100.00
64683;BME280;51107;47.652;19.016;2023-05-24T01:11:59;99610.59;;;15.15;100.00
64683;BME280;51107;47.652;19.016;2023-05-24T01:17:31;99612.94;;;15.10;100.00
64683;BME280;51107;47.652;19.016;2023-05-24T01:20:03;99605.44;;;15.07;100.00
64683;BME280;51107;47.652;19.016;2023-05-24T01:25:44;99599.09;;;15.01;100.00
64683;BME280;51107;47.652;19.016;2023-05-24T01:28:16;99593.31;;;15.06;100.00
64683;BME280;51107;47.652;19.016;2023-05-24T01:30:45;99594.84;;;15.15;100.00
64683;BME280;51107;47.652;19.016;2023-05-24T01:33:14;99591.06;;;15.03;100.00
64683;BME280;51107;47.652;19.016;2023-05-24T01:35:42;99586.50;;;15.11;100.00
64683;BME280;51107;47.652;19.016;2023-05-24T01:38:13;99591.84;;;15.18;100.00
64683;BME280;51107;47.652;19.016;2023-05-24T01:40:43;99589.31;;;15.10;100.00
64683;BME280;51107;47.652;19.016;2023-05-24T01:43:32;99590.41;;;15.16;100.00
64683;BME280;51107;47.652;19.016;2023-05-24T01:51:37;99586.12;;;15.15;100.00
64683;BME280;51107;47.652;19.016;2023-05-24T01:54:11;99577.97;;;15.24;100.00
64683;BME280;51107;47.652;19.016;2023-05-24T01:56:42;99580.78;;;15.23;100.00
64683;BME280;51107;47.652;19.016;2023-05-24T01:59:11;99576.97;;;15.25;100.00
64683;BME280;51107;47.652;19.016;2023-05-24T02:01:40;99579.78;;;15.24;100.00
64683;BME280;51107;47.652;19.016;2023-05-24T02:04:12;99579.97;;;15.22;100.00
64683;BME280;51107;47.652;19.016;2023-05-24T02:06:40;99575.72;;;15.21;100.00
64683;BME280;51107;47.652;19.016;2023-05-24T02:09:09;99583.84;;;15.26;100.00
64683;BME280;51107;47.652;19.016;2023-05-24T02:11:37;99580.84;;;15.29;100.00
64683;BME280;51107;47.652;19.016;2023-05-24T02:14:06;99575.78;;;15.28;100.00
64683;BME280;51107;47.652;19.016;2023-05-24T02:16:34;99582.03;;;15.27;100.00
64683;BME280;51107;47.652;19.016;2023-05-24T02:19:10;99576.97;;;15.25;100.00
64683;BME280;51107;47.652;19.016;2023-05-24T02:21:40;99587.09;;;15.28;100.00
64683;BME280;51107;47.652;19.016;2023-05-24T02:24:10;99580.84;;;15.29;100.00
64683;BME280;51107;47.652;19.016;2023-05-24T02:26:40;99585.09;;;15.31;100.00
64683;BME280;51107;47.652;19.016;2023-05-24T02:29:08;99586.16;;;15.36;100.00
64683;BME280;51107;47.652;19.016;2023-05-24T02:31:36;99581.53;;;15.38;100.00
64683;BME280;51107;47.652;19.016;2023-05-24T02:34:05;99583.81;;;15.41;100.00
64683;BME280;51107;47.652;19.016;2023-05-24T02:36:34;99579.75;;;15.39;100.00
64683;BME280;51107;47.652;19.016;2023-05-24T02:39:03;99582.37;;;15.39;100.00
64683;BME280;51107;47.652;19.016;2023-05-24T02:41:32;99568.22;;;15.40;100.00
64683;BME280;51107;47.652;19.016;2023-05-24T02:44:00;99582.72;;;15.36;100.00
64683;BME280;51107;47.652;19.016;2023-05-24T02:46:28;99574.22;;;15.34;100.00
64683;BME280;51107;47.652;19.016;2023-05-24T02:48:57;99574.69;;;15.37;100.00
64683;BME280;51107;47.652;19.016;2023-05-24T02:51:26;99580.09;;;15.36;100.00
64683;BME280;51107;47.652;19.016;2023-05-24T02:53:54;99574.03;;;15.35;100.00
64683;BME280;51107;47.652;19.016;2023-05-24T02:56:23;99578.69;;;15.33;100.00
64683;BME280;51107;47.652;19.016;2023-05-24T02:58:51;99565.59;;;15.40;100.00
64683;BME280;51107;47.652;19.016;2023-05-24T03:01:21;99580.41;;;15.48;100.00
64683;BME280;51107;47.652;19.016;2023-05-24T03:03:52;99578.59;;;15.48;100.00
64683;BME280;51107;47.652;19.016;2023-05-24T03:06:20;99573.59;;;15.53;100.00
64683;BME280;51107;47.652;19.016;2023-05-24T03:08:49;99578.59;;;15.48;100.00
64683;BME280;51107;47.652;19.016;2023-05-24T03:11:18;99574.44;;;15.54;100.00
64683;BME280;51107;47.652;19.016;2023-05-24T03:13:50;99575.69;;;15.58;100.00
64683;BME280;51107;47.652;19.016;2023-05-24T03:16:19;99576.09;;;15.61;100.00
64683;BME280;51107;47.652;19.016;2023-05-24T03:18:48;99576.75;;;15.63;100.00
64683;BME280;51107;47.652;19.016;2023-05-24T03:21:22;99575.13;;;15.62;100.00
64683;BME280;51107;47.652;19.016;2023-05-24T03:23:52;99579.78;;;15.67;100.00
64683;BME280;51107;47.652;19.016;2023-05-24T03:26:20;99570.72;;;15.70;100.00
64683;BME280;51107;47.652;19.016;2023-05-24T03:28:49;99573.16;;;15.71;100.00
64683;BME280;51107;47.652;19.016;2023-05-24T03:31:21;99574.00;;;15.72;100.00
64683;BME280;51107;47.652;19.016;2023-05-24T03:33:52;99570.97;;;15.75;100.00
64683;BME280;51107;47.652;19.016;2023-05-24T03:36:20;99573.41;;;15.76;100.00
64683;BME280;51107;47.652;19.016;2023-05-24T03:38:48;99581.28;;;15.76;100.00
64683;BME280;51107;47.652;19.016;2023-05-24T03:41:18;99570.59;;;15.78;100.00
64683;BME280;51107;47.652;19.016;2023-05-24T03:43:46;99571.69;;;15.84;100.00
64683;BME280;51107;47.652;19.016;2023-05-24T03:46:14;99575.16;;;15.91;100.00
64683;BME280;51107;47.652;19.016;2023-05-24T03:48:43;99583.09;;;15.98;100.00
64683;BME280;51107;47.652;19.016;2023-05-24T03:51:12;99579.81;;;15.89;100.00
64683;BME280;51107;47.652;19.016;2023-05-24T03:53:40;99575.16;;;15.91;100.00
64683;BME280;51107;47.652;19.016;2023-05-24T03:56:09;99589.72;;;15.93;100.00
64683;BME280;51107;47.652;19.016;2023-05-24T03:58:37;99589.53;;;15.95;100.00
64683;BME280;51107;47.652;19.016;2023-05-24T04:01:05;99593.38;;;15.92;100.00
64683;BME280;51107;47.652;19.016;2023-05-24T04:03:35;99598.63;;;15.92;100.00
64683;BME280;51107;47.652;19.016;2023-05-24T04:06:04;99586.38;;;16.00;100.00
64683;BME280;51107;47.652;19.016;2023-05-24T04:08:32;99588.28;;;15.91;100.00
64683;BME280;51107;47.652;19.016;2023-05-24T04:11:00;99595.38;;;15.90;100.00
64683;BME280;51107;47.652;19.016;2023-05-24T04:13:29;99595.75;;;15.87;100.00
64683;BME280;51107;47.652;19.016;2023-05-24T04:15:57;99588.13;;;15.92;100.00
64683;BME280;51107;47.652;19.016;2023-05-24T04:18:26;99599.50;;;16.00;100.00
64683;BME280;51107;47.652;19.016;2023-05-24T04:20:54;99597.66;;;16.00;100.00
64683;BME280;51107;47.652;19.016;2023-05-24T04:23:23;99604.16;;;16.04;100.00
64683;BME280;51107;47.652;19.016;2023-05-24T04:25:52;99598.72;;;16.06;100.00
64683;BME280;51107;47.652;19.016;2023-05-24T04:28:20;99598.72;;;16.06;100.00
64683;BME280;51107;47.652;19.016;2023-05-24T04:30:49;99605.41;;;16.08;100.00
64683;BME280;51107;47.652;19.016;2023-05-24T04:33:18;99612.22;;;16.24;100.00
64683;BME280;51107;47.652;19.016;2023-05-24T04:35:46;99617.84;;;16.21;100.00
64683;BME280;51107;47.652;19.016;2023-05-24T04:38:15;99627.50;;;16.14;100.00
64683;BME280;51107;47.652;19.016;2023-05-24T04:40:43;99627.13;;;16.17;100.00
64683;BME280;51107;47.652;19.016;2023-05-24T04:43:12;99638.50;;;16.24;100.00
64683;BME280;51107;47.652;19.016;2023-05-24T04:45:41;99637.91;;;16.29;100.00
64683;BME280;51107;47.652;19.016;2023-05-24T04:48:10;99638.88;;;16.21;100.00
64683;BME280;51107;47.652;19.016;2023-05-24T04:50:41;99631.59;;;16.23;100.00
64683;BME280;51107;47.652;19.016;2023-05-24T04:53:09;99627.53;;;16.21;100.00
64683;BME280;51107;47.652;19.016;2023-05-24T04:55:38;99630.16;;;16.21;100.00
64683;BME280;51107;47.652;19.016;2023-05-24T04:58:06;99635.47;;;16.27;100.00
64683;BME280;51107;47.652;19.016;2023-05-24T05:00:36;99639.53;;;16.30;100.00
64683;BME280;51107;47.652;19.016;2023-05-24T05:03:05;99640.59;;;16.36;100.00
64683;BME280;51107;47.652;19.016;2023-05-24T05:05:34;99644.72;;;16.45;100.00
64683;BME280;51107;47.652;19.016;2023-05-24T05:08:02;99644.47;;;16.40;100.00
64683;BME280;51107;47.652;19.016;2023-05-24T05:10:31;99656.41;;;16.42;100.00
64683;BME280;51107;47.652;19.016;2023-05-24T05:12:59;99656.03;;;16.45;100.00
64683;BME280;51107;47.652;19.016;2023-05-24T05:15:27;99655.63;;;16.42;100.00
64683;BME280;51107;47.652;19.016;2023-05-24T05:17:56;99659.50;;;16.53;100.00
64683;BME280;51107;47.652;19.016;2023-05-24T05:20:24;99663.03;;;16.60;100.00
64683;BME280;51107;47.652;19.016;2023-05-24T05:22:53;99661.28;;;16.74;100.00
64683;BME280;51107;47.652;19.016;2023-05-24T05:25:21;99661.03;;;16.69;100.00
64683;BME280;51107;47.652;19.016;2023-05-24T05:27:49;99662.22;;;16.66;100.00
64683;BME280;51107;47.652;19.016;2023-05-24T05:30:18;99656.63;;;16.76;100.00
64683;BME280;51107;47.652;19.016;2023-05-24T05:32:46;99660.84;;;16.98;100.00
64683;BME280;51107;47.652;19.016;2023-05-24T05:35:14;99654.28;;;16.88;100.00
64683;BME280;51107;47.652;19.016;2023-05-24T05:37:43;99656.81;;;17.03;100.00
64683;BME280;51107;47.652;19.016;2023-05-24T05:40:11;99655.12;;;16.95;100.00
64683;BME280;51107;47.652;19.016;2023-05-24T05:42:39;99659.63;;;17.08;100.00
64683;BME280;51107;47.652;19.016;2023-05-24T05:45:08;99659.50;;;17.23;100.00
64683;BME280;51107;47.652;19.016;2023-05-24T05:47:36;99660.16;;;17.31;100.00
64683;BME280;51107;47.652;19.016;2023-05-24T05:50:05;99666.03;;;17.34;100.00
64683;BME280;51107;47.652;19.016;2023-05-24T05:52:34;99673.16;;;17.40;100.00
64683;BME280;51107;47.652;19.016;2023-05-24T05:55:02;99670.75;;;17.52;100.00
64683;BME280;51107;47.652;19.016;2023-05-24T05:57:31;99685.78;;;17.64;100.00
64683;BME280;51107;47.652;19.016;2023-05-24T05:59:59;99679.47;;;17.65;100.00
64683;BME280;51107;47.652;19.016;2023-05-24T06:02:38;99679.31;;;17.80;100.00
64683;BME280;51107;47.652;19.016;2023-05-24T06:05:07;99674.25;;;17.79;100.00
64683;BME280;51107;47.652;19.016;2023-05-24T06:07:36;99675.31;;;17.91;100.00
64683;BME280;51107;47.652;19.016;2023-05-24T06:10:05;99675.13;;;17.99;100.00
64683;BME280;51107;47.652;19.016;2023-05-24T06:12:34;99682.59;;;17.96;100.00
64683;BME280;51107;47.652;19.016;2023-05-24T06:15:03;99687.47;;;17.92;99.83
64683;BME280;51107;47.652;19.016;2023-05-24T06:17:33;99682.63;;;18.03;99.19
64683;BME280;51107;47.652;19.016;2023-05-24T06:20:03;99680.16;;;17.94;99.10
64683;BME280;51107;47.652;19.016;2023-05-24T06:22:37;99683.03;;;17.99;99.15
64683;BME280;51107;47.652;19.016;2023-05-24T06:25:07;99688.28;;;17.93;98.91
64683;BME280;51107;47.652;19.016;2023-05-24T06:27:35;99685.25;;;18.03;98.74
64683;BME280;51107;47.652;19.016;2023-05-24T06:30:04;99684.84;;;18.12;98.95
64683;BME280;51107;47.652;19.016;2023-05-24T06:32:34;99684.84;;;18.12;98.49
64683;BME280;51107;47.652;19.016;2023-05-24T06:35:02;99681.00;;;18.22;99.77
64683;BME280;51107;47.652;19.016;2023-05-24T06:37:31;99688.94;;;18.35;100.00
64683;BME280;51107;47.652;19.016;2023-05-24T06:40:00;99686.66;;;18.45;98.03
64683;BME280;51107;47.652;19.016;2023-05-24T06:42:29;99679.97;;;18.56;97.72
64683;BME280;51107;47.652;19.016;2023-05-24T06:44:57;99682.38;;;18.64;98.62
64683;BME280;51107;47.652;19.016;2023-05-24T06:47:25;99682.38;;;18.78;96.78
64683;BME280;51107;47.652;19.016;2023-05-24T06:49:54;99687.44;;;18.86;95.85
64683;BME280;51107;47.652;19.016;2023-05-24T06:52:23;99693.12;;;18.90;93.75
64683;BME280;51107;47.652;19.016;2023-05-24T06:54:51;99691.91;;;18.92;94.44
64683;BME280;51107;47.652;19.016;2023-05-24T06:57:20;99688.22;;;19.07;91.49
64683;BME280;51107;47.652;19.016;2023-05-24T06:59:49;99695.13;;;19.08;92.70
64683;BME280;51107;47.652;19.016;2023-05-24T07:02:17;99688.97;;;19.21;89.77
64683;BME280;51107;47.652;19.016;2023-05-24T07:04:45;99693.03;;;19.23;91.69
64683;BME280;51107;47.652;19.016;2023-05-24T07:07:14;99698.66;;;19.33;87.99
64683;BME280;51107;47.652;19.016;2023-05-24T07:09:43;99693.31;;;19.47;88.45
64683;BME280;51107;47.652;19.016;2023-05-24T07:12:11;99703.72;;;19.35;85.57
64683;BME280;51107;47.652;19.016;2023-05-24T07:14:39;99697.88;;;19.26;88.24
64683;BME280;51107;47.652;19.016;2023-05-24T07:17:08;99702.78;;;19.61;88.91
64683;BME280;51107;47.652;19.016;2023-05-24T07:19:36;99702.25;;;19.91;87.67
64683;BME280;51107;47.652;19.016;2023-05-24T07:22:04;99701.47;;;20.16;85.36
64683;BME280;51107;47.652;19.016;2023-05-24T07:24:33;99697.91;;;20.29;84.29
64683;BME280;51107;47.652;19.016;2023-05-24T07:27:01;99689.91;;;20.35;82.37
64683;BME280;51107;47.652;19.016;2023-05-24T07:29:30;99699.47;;;20.36;81.91
64683;BME280;51107;47.652;19.016;2023-05-24T07:31:58;99700.38;;;20.49;83.52
64683;BME280;51107;47.652;19.016;2023-05-24T07:34:28;99710.00;;;20.68;80.97
64683;BME280;51107;47.652;19.016;2023-05-24T07:36:57;99715.97;;;20.57;78.38
64683;BME280;51107;47.652;19.016;2023-05-24T07:39:27;99720.78;;;20.67;81.21
64683;BME280;51107;47.652;19.016;2023-05-24T07:41:56;99717.22;;;20.80;79.61
64683;BME280;51107;47.652;19.016;2023-05-24T07:44:24;99711.56;;;21.13;78.02
64683;BME280;51107;47.652;19.016;2023-05-24T07:46:53;99716.88;;;21.13;77.96
64683;BME280;51107;47.652;19.016;2023-05-24T07:49:22;99714.50;;;21.24;76.34
64683;BME280;51107;47.652;19.016;2023-05-24T07:51:51;99715.62;;;21.65;74.20
64683;BME280;51107;47.652;19.016;2023-05-24T07:54:20;99717.28;;;21.78;72.92
64683;BME280;51107;47.652;19.016;2023-05-24T07:56:48;99721.50;;;21.97;71.83
64683;BME280;51107;47.652;19.016;2023-05-24T07:59:17;99723.22;;;21.92;71.35
64683;BME280;51107;47.652;19.016;2023-05-24T08:01:46;99724.91;;;21.74;73.02
64683;BME280;51107;47.652;19.016;2023-05-24T08:04:14;99731.00;;;21.75;74.71
64683;BME280;51107;47.652;19.016;2023-05-24T08:06:43;99731.59;;;21.77;71.42
64683;BME280;51107;47.652;19.016;2023-05-24T08:09:13;99737.94;;;21.76;70.45
64683;BME280;51107;47.652;19.016;2023-05-24T08:11:42;99744.44;;;21.92;70.91
64683;BME280;51107;47.652;19.016;2023-05-24T08:14:10;99742.91;;;22.26;70.68
64683;BME280;51107;47.652;19.016;2023-05-24T08:16:38;99757.56;;;22.29;72.17
64683;BME280;51107;47.652;19.016;2023-05-24T08:19:07;99744.00;;;21.64;73.99
64683;BME280;51107;47.652;19.016;2023-05-24T08:21:35;99751.81;;;21.59;71.15
64683;BME280;51107;47.652;19.016;2023-05-24T08:24:04;99750.03;;;22.14;72.57
64683;BME280;51107;47.652;19.016;2023-05-24T08:26:36;99755.75;;;21.99;71.02
64683;BME280;51107;47.652;19.016;2023-05-24T08:29:05;99766.59;;;21.97;72.94
64683;BME280;51107;47.652;19.016;2023-05-24T08:31:33;99760.84;;;21.70;73.06
64683;BME280;51107;47.652;19.016;2023-05-24T08:34:02;99766.09;;;21.58;74.53
64683;BME280;51107;47.652;19.016;2023-05-24T08:36:30;99769.22;;;21.48;72.22
64683;BME280;51107;47.652;19.016;2023-05-24T08:38:59;99767.19;;;21.50;71.77
64683;BME280;51107;47.652;19.016;2023-05-24T08:41:28;99769.09;;;21.43;69.53
64683;BME280;51107;47.652;19.016;2023-05-24T08:43:59;99768.16;;;21.56;73.16
64683;BME280;51107;47.652;19.016;2023-05-24T08:46:29;99763.50;;;21.70;74.18
64683;BME280;51107;47.652;19.016;2023-05-24T08:48:58;99767.03;;;21.94;74.55
64683;BME280;51107;47.652;19.016;2023-05-24T08:51:28;99777.44;;;21.96;69.62
64683;BME280;51107;47.652;19.016;2023-05-24T08:53:58;99787.91;;;21.91;70.44
64683;BME280;51107;47.652;19.016;2023-05-24T08:56:27;99775.22;;;21.93;68.81
64683;BME280;51107;47.652;19.016;2023-05-24T08:58:58;99780.94;;;22.50;69.51
64683;BME280;51107;47.652;19.016;2023-05-24T09:01:27;99775.16;;;22.89;70.80
64683;BME280;51107;47.652;19.016;2023-05-24T09:04:01;99782.09;;;23.14;67.60
64683;BME280;51107;47.652;19.016;2023-05-24T09:06:31;99794.91;;;23.40;64.55
64683;BME280;51107;47.652;19.016;2023-05-24T09:09:02;99790.88;;;23.26;63.85
64683;BME280;51107;47.652;19.016;2023-05-24T09:11:31;99785.13;;;23.58;64.90
64683;BME280;51107;47.652;19.016;2023-05-24T09:14:00;99787.87;;;23.63;60.89
64683;BME280;51107;47.652;19.016;2023-05-24T09:16:29;99794.06;;;23.52;62.29
64683;BME280;51107;47.652;19.016;2023-05-24T09:18:57;99777.88;;;23.82;65.49
64683;BME280;51107;47.652;19.016;2023-05-24T09:21:26;99779.91;;;24.04;66.41
64683;BME280;51107;47.652;19.016;2023-05-24T09:23:57;99780.34;;;23.72;63.99
64683;BME280;51107;47.652;19.016;2023-05-24T09:26:26;99786.22;;;23.45;65.76
64683;BME280;51107;47.652;19.016;2023-05-24T09:28:57;99790.75;;;23.21;60.58
64683;BME280;51107;47.652;19.016;2023-05-24T09:31:37;99795.03;;;23.22;60.60
64683;BME280;51107;47.652;19.016;2023-05-24T09:34:13;99785.66;;;23.31;68.54
64683;BME280;51107;47.652;19.016;2023-05-24T09:36:45;99781.31;;;23.54;65.61
64683;BME280;51107;47.652;19.016;2023-05-24T09:39:14;99774.53;;;23.46;62.66
64683;BME280;51107;47.652;19.016;2023-05-24T09:41:51;99770.34;;;23.91;65.24
64683;BME280;51107;47.652;19.016;2023-05-24T09:44:24;99779.63;;;23.77;64.09
64683;BME280;51107;47.652;19.016;2023-05-24T09:47:01;99778.44;;;23.55;64.52
64683;BME280;51107;47.652;19.016;2023-05-24T09:49:37;99783.50;;;23.04;65.25
64683;BME280;51107;47.652;19.016;2023-05-24T09:52:05;99783.25;;;23.18;69.97
64683;BME280;51107;47.652;19.016;2023-05-24T09:54:35;99776.66;;;23.20;65.59
64683;BME280;51107;47.652;19.016;2023-05-24T09:57:03;99783.12;;;23.01;67.29
64683;BME280;51107;47.652;19.016;2023-05-24T09:59:34;99790.53;;;23.11;65.53
64683;BME280;51107;47.652;19.016;2023-05-24T10:02:10;99782.66;;;23.04;64.28
64683;BME280;51107;47.652;19.016;2023-05-24T10:04:39;99794.44;;;23.08;65.97
64683;BME280;51107;47.652;19.016;2023-05-24T10:07:07;99789.22;;;23.49;66.55
64683;BME280;51107;47.652;19.016;2023-05-24T10:09:35;99799.44;;;23.69;66.19
64683;BME280;51107;47.652;19.016;2023-05-24T10:12:06;99788.50;;;23.94;63.93
64683;BME280;51107;47.652;19.016;2023-05-24T10:14:38;99785.25;;;23.92;61.29
64683;BME280;51107;47.652;19.016;2023-05-24T10:17:06;99800.09;;;23.35;61.22
64683;BME280;51107;47.652;19.016;2023-05-24T10:19:36;99794.47;;;23.20;65.59
64683;BME280;51107;47.652;19.016;2023-05-24T10:22:06;99785.19;;;23.46;62.69
64683;BME280;51107;47.652;19.016;2023-05-24T10:24:38;99787.78;;;23.58;59.71
64683;BME280;51107;47.652;19.016;2023-05-24T10:27:13;99787.53;;;23.19;62.31
64683;BME280;51107;47.652;19.016;2023-05-24T10:32:15;99795.37;;;23.66;62.61
64683;BME280;51107;47.652;19.016;2023-05-24T10:34:45;99789.75;;;23.63;63.44
64683;BME280;51107;47.652;19.016;2023-05-24T10:37:16;99780.53;;;23.94;61.98
64683;BME280;51107;47.652;19.016;2023-05-24T10:39:45;99780.53;;;23.94;61.13
64683;BME280;51107;47.652;19.016;2023-05-24T10:42:13;99792.44;;;23.91;61.40
64683;BME280;51107;47.652;19.016;2023-05-24T10:44:42;99788.19;;;23.38;61.56
64683;BME280;51107;47.652;19.016;2023-05-24T10:47:12;99780.97;;;22.98;63.46
64683;BME280;51107;47.652;19.016;2023-05-24T10:49:48;99787.87;;;23.11;63.54
64683;BME280;51107;47.652;19.016;2023-05-24T10:52:20;99787.41;;;22.78;66.07
64683;BME280;51107;47.652;19.016;2023-05-24T10:55:04;99786.38;;;22.67;66.71
64683;BME280;51107;47.652;19.016;2023-05-24T10:57:35;99787.66;;;23.12;67.08
64683;BME280;51107;47.652;19.016;2023-05-24T11:03:06;99787.69;;;23.53;60.30
64683;BME280;51107;47.652;19.016;2023-05-24T11:08:34;99777.88;;;23.41;61.68
64683;BME280;51107;47.652;19.016;2023-05-24T11:13:55;99776.97;;;23.77;62.61
64683;BME280;51107;47.652;19.016;2023-05-24T11:16:37;99772.91;;;23.45;63.39
64683;BME280;51107;47.652;19.016;2023-05-24T11:19:28;99772.31;;;23.14;63.39
64683;BME280;51107;47.652;19.016;2023-05-24T11:21:56;99774.13;;;23.26;63.75
64683;BME280;51107;47.652;19.016;2023-05-24T11:24:26;99767.44;;;23.23;62.88
64683;BME280;51107;47.652;19.016;2023-05-24T11:26:56;99767.41;;;23.35;63.30
64683;BME280;51107;47.652;19.016;2023-05-24T11:29:24;99771.94;;;23.63;63.03
64683;BME280;51107;47.652;19.016;2023-05-24T11:31:55;99770.28;;;23.74;61.75
64683;BME280;51107;47.652;19.016;2023-05-24T11:34:33;99763.09;;;23.74;61.47
64683;BME280;51107;47.652;19.016;2023-05-24T11:37:03;99761.88;;;23.65;61.66
64683;BME280;51107;47.652;19.016;2023-05-24T11:39:34;99765.19;;;23.72;62.62
64683;BME280;51107;47.652;19.016;2023-05-24T11:42:03;99750.47;;;23.82;63.71
64683;BME280;51107;47.652;19.016;2023-05-24T11:44:34;99758.31;;;23.88;63.62
64683;BME280;51107;47.652;19.016;2023-05-24T11:47:06;99752.31;;;23.93;61.98
64683;BME280;51107;47.652;19.016;2023-05-24T11:49:35;99751.25;;;23.94;62.33
64683;BME280;51107;47.652;19.016;2023-05-24T11:52:03;99759.88;;;24.01;61.88
64683;BME280;51107;47.652;19.016;2023-05-24T11:54:32;99759.94;;;23.89;59.05
64683;BME280;51107;47.652;19.016;2023-05-24T11:57:01;99752.84;;;23.66;61.15
64683;BME280;51107;47.652;19.016;2023-05-24T11:59:30;99754.94;;;23.64;62.07
64683;BME280;51107;47.652;19.016;2023-05-24T12:02:03;99754.69;;;23.37;62.82
64683;BME280;51107;47.652;19.016;2023-05-24T12:04:33;99751.00;;;23.26;63.34
64683;BME280;51107;47.652;19.016;2023-05-24T12:07:02;99748.97;;;23.04;61.83
64683;BME280;51107;47.652;19.016;2023-05-24T12:09:30;99752.06;;;23.01;64.67
64683;BME280;51107;47.652;19.016;2023-05-24T12:11:59;99751.38;;;22.94;63.21
64683;BME280;51107;47.652;19.016;2023-05-24T12:14:30;99755.53;;;22.90;62.85
64683;BME280;51107;47.652;19.016;2023-05-24T12:17:00;99748.72;;;23.06;63.76
64683;BME280;51107;47.652;19.016;2023-05-24T12:19:30;99746.28;;;23.28;63.28
64683;BME280;51107;47.652;19.016;2023-05-24T12:22:04;99755.03;;;23.40;62.66
64683;BME280;51107;47.652;19.016;2023-05-24T12:24:34;99753.81;;;23.60;64.46
64683;BME280;51107;47.652;19.016;2023-05-24T12:27:04;99752.66;;;23.56;62.70
64683;BME280;51107;47.652;19.016;2023-05-24T12:29:39;99753.78;;;23.31;61.87
64683;BME280;51107;47.652;19.016;2023-05-24T12:32:09;99751.16;;;23.48;62.36
64683;BME280;51107;47.652;19.016;2023-05-24T12:34:43;99756.09;;;23.68;61.19
64683;BME280;51107;47.652;19.016;2023-05-24T12:37:13;99750.78;;;23.85;61.83
64683;BME280;51107;47.652;19.016;2023-05-24T12:39:41;99756.63;;;23.41;61.34
64683;BME280;51107;47.652;19.016;2023-05-24T12:42:12;99745.56;;;23.21;60.98
64683;BME280;51107;47.652;19.016;2023-05-24T12:44:41;99745.16;;;23.00;62.34
64683;BME280;51107;47.652;19.016;2023-05-24T12:47:09;99741.00;;;22.93;61.96
64683;BME280;51107;47.652;19.016;2023-05-24T12:49:38;99734.44;;;22.71;61.40
64683;BME280;51107;47.652;19.016;2023-05-24T12:52:06;99744.72;;;22.80;63.38
64683;BME280;51107;47.652;19.016;2023-05-24T12:54:34;99730.72;;;22.96;65.93
64683;BME280;51107;47.652;19.016;2023-05-24T12:57:03;99730.69;;;23.20;63.80
64683;BME280;51107;47.652;19.016;2023-05-24T12:59:32;99725.78;;;23.40;64.63
64683;BME280;51107;47.652;19.016;2023-05-24T13:02:00;99720.63;;;23.63;61.91
64683;BME280;51107;47.652;19.016;2023-05-24T13:04:29;99727.44;;;23.58;59.48
64683;BME280;51107;47.652;19.016;2023-05-24T13:07:01;99723.69;;;23.43;59.47
64683;BME280;51107;47.652;19.016;2023-05-24T13:09:30;99729.00;;;23.43;62.49
64683;BME280;51107;47.652;19.016;2023-05-24T13:12:00;99729.63;;;23.62;60.39
64683;BME280;51107;47.652;19.016;2023-05-24T13:14:28;99729.25;;;23.41;60.00
64683;BME280;51107;47.652;19.016;2023-05-24T13:16:57;99731.63;;;23.54;59.77
64683;BME280;51107;47.652;19.016;2023-05-24T13:19:25;99727.91;;;23.27;60.56
64683;BME280;51107;47.652;19.016;2023-05-24T13:21:53;99734.31;;;23.43;60.14
64683;BME280;51107;47.652;19.016;2023-05-24T13:24:22;99724.69;;;23.13;60.75